createdAt,value
2022-11-16T00:02:32.580Z,6.65
2022-11-16T00:05:37.336Z,8.35
2022-11-16T00:09:07.887Z,9.48
2022-11-16T00:12:12.776Z,9.68
2022-11-16T00:15:17.304Z,9.75
2022-11-16T00:18:22.198Z,10.20
2022-11-16T00:21:27.594Z,10.77
2022-11-16T00:24:32.191Z,10.15
2022-11-16T00:27:36.809Z,9.90
2022-11-16T00:30:41.342Z,11.02
2022-11-16T00:33:47.655Z,10.82
2022-11-16T00:36:52.640Z,10.75
2022-11-16T00:39:56.993Z,10.38
2022-11-16T00:43:01.519Z,7.70
2022-11-16T00:46:06.243Z,11.60
2022-11-16T00:49:11.429Z,11.77
2022-11-16T00:52:15.998Z,10.15
2022-11-16T00:55:21.577Z,9.93
2022-11-16T00:58:26.307Z,12.38
2022-11-16T01:01:39.329Z,8.68
2022-11-16T01:04:44.943Z,11.27
2022-11-16T01:07:50.465Z,9.38
2022-11-16T01:10:55.011Z,7.70
2022-11-16T01:14:03.926Z,11.45
2022-11-16T01:17:09.123Z,10.55
2022-11-16T01:20:19.430Z,10.02
2022-11-16T01:23:23.961Z,11.45
2022-11-16T01:26:29.743Z,9.88
2022-11-16T01:29:34.940Z,11.48
2022-11-16T01:32:40.267Z,13.55
2022-11-16T01:35:45.564Z,10.40
2022-11-16T01:38:52.672Z,12.52
2022-11-16T01:42:01.082Z,9.02
2022-11-16T01:45:17.528Z,9.10
2022-11-16T01:48:29.892Z,9.20
2022-11-16T01:51:36.633Z,6.90
2022-11-16T01:54:44.965Z,10.48
2022-11-16T01:57:50.904Z,11.93
2022-11-16T02:00:55.380Z,10.50
2022-11-16T02:04:19.351Z,10.90
2022-11-16T02:08:06.361Z,9.40
2022-11-16T02:11:58.168Z,10.82
2022-11-16T02:15:25.323Z,8.05
2022-11-16T02:18:52.153Z,6.90
2022-11-16T02:22:47.283Z,6.50
2022-11-16T02:26:26.851Z,7.22
2022-11-16T02:29:54.566Z,7.00
2022-11-16T02:33:09.955Z,7.90
2022-11-16T02:36:20.435Z,7.18
2022-11-16T02:39:28.388Z,6.72
2022-11-16T02:42:47.666Z,9.93
2022-11-16T02:45:57.733Z,8.50
2022-11-16T02:49:10.736Z,8.38
2022-11-16T02:52:17.885Z,8.10
2022-11-16T02:55:23.936Z,7.97
2022-11-16T02:58:29.210Z,7.15
2022-11-16T03:01:40.770Z,7.50
2022-11-16T03:04:59.728Z,7.38
2022-11-16T03:08:46.259Z,8.73
2022-11-16T03:12:00.170Z,8.05
2022-11-16T03:15:10.890Z,6.97
2022-11-16T03:18:17.194Z,6.35
2022-11-16T03:21:33.092Z,8.63
2022-11-16T03:24:40.915Z,7.95
2022-11-16T03:28:21.555Z,6.97
2022-11-16T03:31:39.134Z,7.22
2022-11-16T03:34:54.627Z,9.38
2022-11-16T03:38:02.902Z,10.32
2022-11-16T03:41:10.384Z,8.85
2022-11-16T03:44:18.731Z,6.93
2022-11-16T03:47:24.051Z,7.18
2022-11-16T03:50:29.234Z,6.28
2022-11-16T03:53:34.180Z,5.80
2022-11-16T03:56:38.903Z,9.43
2022-11-16T03:59:43.582Z,6.60
2022-11-16T04:02:48.623Z,6.68
2022-11-16T04:06:17.839Z,6.28
2022-11-16T04:09:40.383Z,7.63
2022-11-16T04:13:04.239Z,7.25
2022-11-16T04:16:28.942Z,7.38
2022-11-16T04:19:57.748Z,7.82
2022-11-16T04:23:29.036Z,6.03
2022-11-16T04:26:53.279Z,6.47
2022-11-16T04:29:59.595Z,7.40
2022-11-16T04:33:24.492Z,6.97
2022-11-16T04:36:48.294Z,6.20
2022-11-16T04:39:53.253Z,6.15
2022-11-16T04:43:03.258Z,5.15
2022-11-16T04:46:30.319Z,5.22
2022-11-16T04:49:35.127Z,6.57
2022-11-16T04:52:40.083Z,5.13
2022-11-16T04:55:50.365Z,5.00
2022-11-16T04:58:56.993Z,6.03
2022-11-16T05:02:10.333Z,4.82
2022-11-16T05:05:23.813Z,5.40
2022-11-16T05:08:30.416Z,5.25
2022-11-16T05:11:36.824Z,4.97
2022-11-16T05:14:42.565Z,3.33
2022-11-16T05:17:47.640Z,3.63
2022-11-16T05:21:00.340Z,3.25
2022-11-16T05:24:26.009Z,1.95
2022-11-16T05:27:31.617Z,1.63
2022-11-16T05:30:37.320Z,1.42
2022-11-16T05:33:42.740Z,1.85
2022-11-16T05:36:48.695Z,2.15
2022-11-16T05:39:54.909Z,2.20
2022-11-16T05:43:03.930Z,2.50
2022-11-16T05:46:13.476Z,1.77
2022-11-16T05:49:19.386Z,2.50
2022-11-16T05:52:23.721Z,1.48
2022-11-16T05:55:28.713Z,1.58
2022-11-16T05:58:34.363Z,1.95
2022-11-16T06:01:40.249Z,2.70
2022-11-16T06:04:45.846Z,1.45
2022-11-16T06:07:50.614Z,2.42
2022-11-16T06:10:55.863Z,1.98
2022-11-16T06:14:00.885Z,1.20
2022-11-16T06:17:05.882Z,2.75
2022-11-16T06:20:11.460Z,2.47
2022-11-16T06:23:17.089Z,3.05
2022-11-16T06:26:21.508Z,2.60
2022-11-16T06:29:25.801Z,3.10
2022-11-16T06:32:31.115Z,3.58
2022-11-16T06:35:35.719Z,2.88
2022-11-16T06:38:41.917Z,3.60
2022-11-16T06:41:47.748Z,3.13
2022-11-16T06:44:52.576Z,3.38
2022-11-16T06:48:02.637Z,3.47
2022-11-16T06:51:07.421Z,3.38
2022-11-16T06:54:12.394Z,2.70
2022-11-16T06:57:17.058Z,4.55
2022-11-16T07:00:21.775Z,3.47
2022-11-16T07:03:27.623Z,3.60
2022-11-16T07:06:32.336Z,2.67
2022-11-16T07:09:37.759Z,3.33
2022-11-16T07:12:42.401Z,3.30
2022-11-16T07:15:47.114Z,3.30
2022-11-16T07:18:51.702Z,3.78
2022-11-16T07:21:56.484Z,3.08
2022-11-16T07:25:01.542Z,4.70
2022-11-16T07:28:06.387Z,3.83
2022-11-16T07:31:14.740Z,2.65
2022-11-16T07:34:20.838Z,3.00
2022-11-16T07:37:31.388Z,2.97
2022-11-16T07:40:36.333Z,2.53
2022-11-16T07:43:42.327Z,3.60
2022-11-16T07:46:49.310Z,2.65
2022-11-16T07:49:54.664Z,2.72
2022-11-16T07:53:02.796Z,2.22
2022-11-16T07:56:09.195Z,3.00
2022-11-16T07:59:14.029Z,2.53
2022-11-16T08:02:21.730Z,2.05
2022-11-16T08:05:28.381Z,3.05
2022-11-16T08:08:33.746Z,3.08
2022-11-16T08:11:38.562Z,2.53
2022-11-16T08:14:43.162Z,3.60
2022-11-16T08:17:47.830Z,2.88
2022-11-16T08:20:52.616Z,3.25
2022-11-16T08:23:58.816Z,4.32
2022-11-16T08:27:04.584Z,2.72
2022-11-16T08:30:10.759Z,1.52
2022-11-16T08:33:17.845Z,3.63
2022-11-16T08:36:22.902Z,3.13
2022-11-16T08:39:27.672Z,2.28
2022-11-16T08:42:32.714Z,2.00
2022-11-16T08:45:38.676Z,3.30
2022-11-16T08:48:43.663Z,1.92
2022-11-16T08:51:47.984Z,2.33
2022-11-16T08:54:52.645Z,3.47
2022-11-16T08:57:57.299Z,2.38
2022-11-16T09:01:13.829Z,3.85
2022-11-16T09:04:18.714Z,2.35
2022-11-16T09:07:23.116Z,2.50
2022-11-16T09:10:27.725Z,3.95
2022-11-16T09:13:32.543Z,2.67
2022-11-16T09:16:37.076Z,2.80
2022-11-16T09:19:41.383Z,2.50
2022-11-16T09:22:45.729Z,2.08
2022-11-16T09:25:50.647Z,2.38
2022-11-16T09:29:00.950Z,3.25
2022-11-16T09:32:05.588Z,5.28
2022-11-16T09:35:10.252Z,2.78
2022-11-16T09:38:22.059Z,2.53
2022-11-16T09:42:00.442Z,4.68
2022-11-16T09:45:38.577Z,2.22
2022-11-16T09:48:43.357Z,2.22
2022-11-16T09:51:53.592Z,1.48
2022-11-16T09:55:06.503Z,3.33
2022-11-16T09:58:57.562Z,2.70
2022-11-16T10:02:28.603Z,2.63
2022-11-16T10:05:51.767Z,1.67
2022-11-16T10:08:56.771Z,2.42
2022-11-16T10:12:30.410Z,2.60
2022-11-16T10:16:06.382Z,2.40
2022-11-16T10:19:53.253Z,2.65
2022-11-16T10:23:10.120Z,3.53
2022-11-16T10:26:34.740Z,2.75
2022-11-16T10:30:14.044Z,3.53
2022-11-16T10:33:22.241Z,2.17
2022-11-16T10:36:31.089Z,3.38
2022-11-16T10:39:40.900Z,3.92
2022-11-16T10:43:05.342Z,3.08
2022-11-16T10:50:00.619Z,2.47
2022-11-16T10:53:05.251Z,4.20
2022-11-16T10:56:39.618Z,3.47
2022-11-16T10:59:48.264Z,2.45
2022-11-16T11:02:53.411Z,2.90
2022-11-16T11:05:58.414Z,3.33
2022-11-16T11:09:25.857Z,3.50
2022-11-16T11:12:39.995Z,4.72
2022-11-16T11:15:45.277Z,3.72
2022-11-16T11:18:51.386Z,4.13
2022-11-16T11:22:00.135Z,2.05
2022-11-16T11:25:18.924Z,4.30
2022-11-16T11:28:33.606Z,3.67
2022-11-16T11:32:01.258Z,3.33
2022-11-16T11:35:06.797Z,2.33
2022-11-16T11:38:15.563Z,2.25
2022-11-16T11:41:20.520Z,3.78
2022-11-16T11:44:49.832Z,4.35
2022-11-16T11:48:02.793Z,4.68
2022-11-16T11:51:40.170Z,5.68
2022-11-16T11:54:49.104Z,6.50
2022-11-16T11:57:54.780Z,3.00
2022-11-16T12:01:31.895Z,1.88
2022-11-16T12:05:28.427Z,2.35
2022-11-16T12:08:42.919Z,3.10
2022-11-16T12:12:14.679Z,2.33
2022-11-16T12:15:40.461Z,2.60
2022-11-16T12:18:57.041Z,3.55
2022-11-16T12:22:35.098Z,2.58
2022-11-16T12:26:02.827Z,2.35
2022-11-16T12:29:21.092Z,2.30
2022-11-16T12:32:49.250Z,1.65
2022-11-16T12:36:24.543Z,4.20
2022-11-16T12:39:44.439Z,1.95
2022-11-16T12:42:57.550Z,2.55
2022-11-16T12:46:10.705Z,3.78
2022-11-16T12:50:21.690Z,3.97
2022-11-16T12:53:41.393Z,1.35
2022-11-16T12:57:04.740Z,3.92
2022-11-16T13:00:19.829Z,2.53
2022-11-16T13:03:46.778Z,6.50
2022-11-16T13:07:10.932Z,1.98
2022-11-16T13:10:33.404Z,3.38
2022-11-16T13:13:40.447Z,2.17
2022-11-16T13:16:47.231Z,3.75
2022-11-16T13:20:40.227Z,4.65
2022-11-16T13:24:15.913Z,1.92
2022-11-16T13:27:39.105Z,4.53
2022-11-16T13:31:19.104Z,2.90
2022-11-16T13:34:28.969Z,4.22
2022-11-16T13:37:39.370Z,2.97
2022-11-16T13:40:44.188Z,2.38
2022-11-16T13:43:49.669Z,2.33
2022-11-16T13:47:06.041Z,5.60
2022-11-16T13:50:20.006Z,2.90
2022-11-16T13:54:37.795Z,4.13
2022-11-16T13:57:21.142Z,1.73
2022-11-16T14:00:53.769Z,1.35
2022-11-16T14:04:55.153Z,2.30
2022-11-16T14:08:19.476Z,1.13
2022-11-16T14:11:40.713Z,4.10
2022-11-16T14:15:16.731Z,6.07
2022-11-16T14:18:21.170Z,1.92
2022-11-16T14:22:05.716Z,2.03
2022-11-16T14:29:01.592Z,2.40
2022-11-16T14:32:23.385Z,2.55
2022-11-16T14:35:34.485Z,1.75
2022-11-16T14:38:42.291Z,2.15
2022-11-16T14:41:47.498Z,3.72
2022-11-16T14:45:14.095Z,1.65
2022-11-16T14:48:21.985Z,1.45
2022-11-16T14:51:35.476Z,1.90
2022-11-16T14:54:53.611Z,2.05
2022-11-16T14:58:22.281Z,1.00
2022-11-16T15:01:35.785Z,1.30
2022-11-16T15:04:40.453Z,2.03
2022-11-16T15:07:50.031Z,1.25
2022-11-16T15:10:54.913Z,1.92
2022-11-16T15:13:59.595Z,2.38
2022-11-16T15:17:06.847Z,3.25
2022-11-16T15:20:18.029Z,2.72
2022-11-16T15:23:31.029Z,2.78
2022-11-16T15:26:38.317Z,1.65
2022-11-16T15:29:42.880Z,3.03
2022-11-16T15:32:50.408Z,2.45
2022-11-16T15:35:55.812Z,2.15
2022-11-16T15:39:02.332Z,1.20
2022-11-16T15:42:14.269Z,1.77
2022-11-16T15:45:23.395Z,2.65
2022-11-16T15:48:28.494Z,2.13
2022-11-16T15:51:33.162Z,0.95
2022-11-16T15:54:56.388Z,1.25
2022-11-16T15:58:12.312Z,1.40
2022-11-16T16:01:17.975Z,1.77
2022-11-16T16:04:23.142Z,2.38
2022-11-16T16:07:43.960Z,2.75
2022-11-16T16:11:03.342Z,1.90
2022-11-16T16:14:10.808Z,2.80
2022-11-16T16:17:26.759Z,3.67
2022-11-16T16:20:33.014Z,1.80
2022-11-16T16:23:50.160Z,1.75
2022-11-16T16:26:54.806Z,2.78
2022-11-16T16:30:05.424Z,2.42
2022-11-16T16:33:19.634Z,2.38
2022-11-16T16:39:28.384Z,3.47
2022-11-16T16:42:33.307Z,1.90
2022-11-16T16:45:43.080Z,2.55
2022-11-16T16:48:47.990Z,4.15
2022-11-16T16:51:52.896Z,3.03
2022-11-16T16:54:57.818Z,2.45
2022-11-16T16:58:02.953Z,3.17
2022-11-16T17:01:07.390Z,5.32
2022-11-16T17:04:11.973Z,3.15
2022-11-16T17:07:17.471Z,3.97
2022-11-16T17:10:22.749Z,2.03
2022-11-16T17:13:27.728Z,3.03
2022-11-16T17:16:33.091Z,5.53
2022-11-16T17:19:37.796Z,3.38
2022-11-16T17:22:42.517Z,3.13
2022-11-16T17:25:47.200Z,3.40
2022-11-16T17:28:58.490Z,2.90
2022-11-16T17:32:03.969Z,2.47
2022-11-16T17:35:09.883Z,4.10
2022-11-16T17:38:14.627Z,2.95
2022-11-16T17:41:25.274Z,3.53
2022-11-16T17:44:30.451Z,3.58
2022-11-16T17:47:35.329Z,3.90
2022-11-16T17:50:46.639Z,3.75
2022-11-16T17:53:51.704Z,3.70
2022-11-16T17:56:56.613Z,2.58
2022-11-16T18:00:01.522Z,3.13
2022-11-16T18:03:06.269Z,4.03
2022-11-16T18:06:14.810Z,2.92
2022-11-16T18:09:19.495Z,4.85
2022-11-16T18:12:24.191Z,4.20
2022-11-16T18:15:29.400Z,2.33
2022-11-16T18:18:34.836Z,2.83
2022-11-16T18:21:41.171Z,2.25
2022-11-16T18:24:46.126Z,2.95
2022-11-16T18:27:53.133Z,5.22
2022-11-16T18:31:15.720Z,2.97
2022-11-16T18:34:20.036Z,6.07
2022-11-16T18:37:24.564Z,5.45
2022-11-16T18:40:29.781Z,5.35
2022-11-16T18:43:35.155Z,4.53
2022-11-16T18:46:40.216Z,4.20
2022-11-16T18:49:45.130Z,4.65
2022-11-16T18:52:49.849Z,6.82
2022-11-16T18:55:58.110Z,5.20
2022-11-16T18:59:03.417Z,5.35
2022-11-16T19:02:12.582Z,2.78
2022-11-16T19:05:16.956Z,4.28
2022-11-16T19:08:21.352Z,7.72
2022-11-16T19:11:28.083Z,4.55
2022-11-16T19:14:32.947Z,6.97
2022-11-16T19:17:59.307Z,7.45
2022-11-16T19:21:15.211Z,4.10
2022-11-16T19:24:19.831Z,4.50
2022-11-16T19:27:24.364Z,4.93
2022-11-16T19:30:29.417Z,3.55
2022-11-16T19:33:34.906Z,4.75
2022-11-16T19:36:40.112Z,3.63
2022-11-16T19:39:44.665Z,6.00
2022-11-16T19:42:48.842Z,4.78
2022-11-16T19:45:53.288Z,7.65
2022-11-16T19:48:59.395Z,6.93
2022-11-16T19:52:05.111Z,4.30
2022-11-16T19:55:09.951Z,5.35
2022-11-16T19:58:14.313Z,4.40
2022-11-16T20:01:26.201Z,6.10
2022-11-16T20:04:34.379Z,3.90
2022-11-16T20:07:38.945Z,4.07
2022-11-16T20:10:43.940Z,4.00
2022-11-16T20:13:50.790Z,3.53
2022-11-16T20:16:55.399Z,4.70
2022-11-16T20:20:00.311Z,4.38
2022-11-16T20:23:04.839Z,11.10
2022-11-16T20:26:11.699Z,18.10
2022-11-16T20:29:18.795Z,10.88
2022-11-16T20:32:25.041Z,8.63
2022-11-16T20:35:29.911Z,7.45
2022-11-16T20:38:38.970Z,6.10
2022-11-16T20:41:44.137Z,7.30
2022-11-16T20:44:48.525Z,7.00
2022-11-16T20:47:52.946Z,7.78
2022-11-16T20:50:57.543Z,5.22
2022-11-16T20:54:02.554Z,6.05
2022-11-16T20:57:06.921Z,4.90
2022-11-16T21:00:13.064Z,5.75
2022-11-16T21:03:17.807Z,5.38
2022-11-16T21:06:22.567Z,4.10
2022-11-16T21:09:27.917Z,4.38
2022-11-16T21:12:50.827Z,5.32
2022-11-16T21:16:11.468Z,4.47
2022-11-16T21:19:16.845Z,4.15
2022-11-16T21:22:21.578Z,5.10
2022-11-16T21:25:25.925Z,5.25
2022-11-16T21:28:30.435Z,4.97
2022-11-16T21:31:36.710Z,5.43
2022-11-16T21:34:41.225Z,6.82
2022-11-16T21:37:45.944Z,4.60
2022-11-16T21:40:50.951Z,5.18
2022-11-16T21:43:55.993Z,5.55
2022-11-16T21:47:00.737Z,4.05
2022-11-16T21:50:30.472Z,5.82
2022-11-16T21:53:30.617Z,3.25
2022-11-16T21:56:34.903Z,5.47
2022-11-16T21:59:39.618Z,4.10
2022-11-16T22:02:43.959Z,5.50
2022-11-16T22:06:14.894Z,6.70
2022-11-16T22:09:20.201Z,7.15
2022-11-16T22:12:24.623Z,8.95
2022-11-16T22:15:29.465Z,4.88
2022-11-16T22:18:34.848Z,3.60
2022-11-16T22:21:39.289Z,6.85
2022-11-16T22:24:44.047Z,8.02
2022-11-16T22:28:13.796Z,4.82
2022-11-16T22:31:15.067Z,6.82
2022-11-16T22:34:19.733Z,4.43
2022-11-16T22:37:24.876Z,5.18
2022-11-16T22:40:29.326Z,5.07
2022-11-16T22:43:34.014Z,7.13
2022-11-16T22:46:38.847Z,4.30
2022-11-16T22:49:43.587Z,4.32
2022-11-16T22:52:48.360Z,4.20
2022-11-16T22:55:52.818Z,4.38
2022-11-16T22:58:58.664Z,4.72
2022-11-16T23:02:05.745Z,7.82
2022-11-16T23:05:10.179Z,4.70
2022-11-16T23:08:14.617Z,6.03
2022-11-16T23:11:42.569Z,4.45
2022-11-16T23:15:05.354Z,5.07
2022-11-16T23:18:10.348Z,6.47
2022-11-16T23:21:33.417Z,4.93
2022-11-16T23:24:56.373Z,5.50
2022-11-16T23:28:15.298Z,5.45
2022-11-16T23:31:19.846Z,7.43
2022-11-16T23:34:24.372Z,6.38
2022-11-16T23:37:28.701Z,4.43
2022-11-16T23:40:36.524Z,8.15
2022-11-16T23:43:59.050Z,3.72
2022-11-16T23:47:03.752Z,4.50
2022-11-16T23:50:09.146Z,5.28
2022-11-16T23:53:14.276Z,5.93
2022-11-16T23:56:20.584Z,5.05
2022-11-16T23:59:25.505Z,6.03
